createdAt,value
2019-01-17T00:01:55.057Z,3.70
2019-01-17T00:04:25.239Z,3.80
2019-01-17T00:07:13.375Z,3.80
2019-01-17T00:09:59.784Z,3.80
2019-01-17T00:12:36.072Z,3.80
2019-01-17T00:15:24.659Z,3.80
2019-01-17T00:18:10.300Z,3.80
2019-01-17T00:20:49.436Z,3.90
2019-01-17T00:23:25.271Z,3.90
2019-01-17T00:26:07.641Z,4.00
2019-01-17T00:28:37.731Z,4.00
2019-01-17T00:31:07.843Z,4.00
2019-01-17T00:33:37.931Z,4.10
2019-01-17T00:36:20.771Z,4.10
2019-01-17T00:38:57.360Z,4.10
2019-01-17T00:41:46.116Z,4.20
2019-01-17T00:44:28.183Z,4.30
2019-01-17T00:46:58.301Z,4.40
2019-01-17T00:49:28.759Z,4.40
2019-01-17T00:52:01.801Z,4.40
2019-01-17T00:54:47.232Z,4.50
2019-01-17T00:57:17.428Z,4.50
2019-01-17T00:59:50.219Z,4.60
2019-01-17T01:02:26.703Z,4.60
2019-01-17T01:05:12.248Z,4.70
2019-01-17T01:08:00.660Z,4.80
2019-01-17T01:10:47.111Z,4.80
2019-01-17T01:13:17.232Z,4.90
2019-01-17T01:16:07.012Z,5.10
2019-01-17T01:18:43.408Z,5.10
2019-01-17T01:21:13.496Z,5.20
2019-01-17T01:23:46.548Z,5.30
2019-01-17T01:26:25.575Z,5.30
2019-01-17T01:29:01.392Z,5.40
2019-01-17T01:31:40.287Z,5.50
2019-01-17T01:34:19.249Z,5.60
2019-01-17T01:36:58.991Z,5.70
2019-01-17T01:39:38.375Z,5.80
2019-01-17T01:42:08.640Z,5.90
2019-01-17T01:44:41.327Z,5.90
2019-01-17T01:47:14.164Z,6.00
2019-01-17T01:49:47.304Z,6.00
2019-01-17T01:52:26.591Z,6.00
2019-01-17T01:54:55.116Z,6.10
2019-01-17T01:57:23.667Z,6.10
2019-01-17T01:59:52.395Z,6.20
2019-01-17T02:02:20.920Z,6.20
2019-01-17T02:04:49.400Z,6.10
2019-01-17T02:07:17.856Z,6.10
2019-01-17T02:09:46.408Z,6.10
2019-01-17T02:12:14.935Z,6.10
2019-01-17T02:14:43.791Z,6.10
2019-01-17T02:17:12.816Z,6.10
2019-01-17T02:19:41.271Z,6.10
2019-01-17T02:22:09.760Z,6.10
2019-01-17T02:24:38.216Z,6.10
2019-01-17T02:27:06.764Z,6.10
2019-01-17T02:29:35.216Z,6.10
2019-01-17T02:32:03.773Z,6.10
2019-01-17T02:34:32.295Z,6.00
2019-01-17T02:37:00.896Z,6.00
2019-01-17T02:39:29.736Z,6.00
2019-01-17T02:41:58.191Z,6.00
2019-01-17T02:44:26.675Z,6.00
2019-01-17T02:46:55.134Z,6.00
2019-01-17T02:49:23.773Z,6.00
2019-01-17T02:51:52.300Z,6.00
2019-01-17T02:54:20.919Z,6.00
2019-01-17T02:56:49.448Z,5.90
2019-01-17T02:59:17.971Z,5.90
2019-01-17T03:01:46.460Z,5.90
2019-01-17T03:04:15.056Z,5.90
2019-01-17T03:06:43.605Z,5.90
2019-01-17T03:09:12.058Z,5.90
2019-01-17T03:11:40.532Z,5.90
2019-01-17T03:14:09.165Z,5.90
2019-01-17T03:16:38.183Z,5.90
2019-01-17T03:19:06.635Z,5.90
2019-01-17T03:21:35.121Z,6.00
2019-01-17T03:24:03.794Z,6.00
2019-01-17T03:26:32.335Z,5.90
2019-01-17T03:29:00.791Z,5.90
2019-01-17T03:31:29.264Z,5.90
2019-01-17T03:33:57.714Z,5.90
2019-01-17T03:36:26.278Z,5.90
2019-01-17T03:38:54.810Z,5.90
2019-01-17T03:41:23.423Z,5.90
2019-01-17T03:43:51.938Z,5.90
2019-01-17T03:46:20.554Z,5.80
2019-01-17T03:48:49.002Z,5.80
2019-01-17T03:51:17.542Z,5.80
2019-01-17T03:53:46.116Z,5.80
2019-01-17T03:56:21.411Z,5.80
2019-01-17T03:58:44.881Z,5.80
2019-01-17T04:01:13.606Z,5.80
2019-01-17T04:03:42.122Z,5.80
2019-01-17T04:06:10.623Z,5.80
2019-01-17T04:08:39.067Z,5.90
2019-01-17T04:11:07.515Z,5.90
2019-01-17T04:13:36.059Z,5.90
2019-01-17T04:16:04.927Z,5.90
2019-01-17T04:18:33.395Z,5.90
2019-01-17T04:21:01.854Z,5.90
2019-01-17T04:23:30.331Z,5.90
2019-01-17T04:25:58.778Z,5.90
2019-01-17T04:28:27.242Z,6.00
2019-01-17T04:30:55.758Z,6.00
2019-01-17T04:33:24.226Z,6.00
2019-01-17T04:35:52.738Z,6.00
2019-01-17T04:38:21.214Z,6.10
2019-01-17T04:40:49.920Z,6.10
2019-01-17T04:43:18.390Z,6.10
2019-01-17T04:45:47.191Z,6.10
2019-01-17T04:48:15.654Z,6.10
2019-01-17T04:50:44.175Z,6.10
2019-01-17T04:53:12.713Z,6.10
2019-01-17T04:55:42.122Z,6.20
2019-01-17T04:58:10.595Z,6.20
2019-01-17T05:00:39.115Z,6.20
2019-01-17T05:03:07.588Z,6.20
2019-01-17T05:05:36.046Z,6.20
2019-01-17T05:08:04.615Z,6.20
2019-01-17T05:10:33.058Z,6.20
2019-01-17T05:13:01.532Z,6.10
2019-01-17T05:15:30.123Z,6.10
2019-01-17T05:17:58.594Z,6.10
2019-01-17T05:20:27.042Z,6.00
2019-01-17T05:22:55.515Z,6.00
2019-01-17T05:25:24.038Z,5.90
2019-01-17T05:27:52.555Z,5.90
2019-01-17T05:30:21.072Z,5.90
2019-01-17T05:32:49.698Z,5.90
2019-01-17T05:35:18.166Z,5.90
2019-01-17T05:37:46.687Z,5.90
2019-01-17T05:40:19.487Z,5.90
2019-01-17T05:42:47.934Z,5.90
2019-01-17T05:45:16.642Z,5.90
2019-01-17T05:47:45.153Z,5.90
2019-01-17T05:50:15.861Z,5.90
2019-01-17T05:52:44.409Z,5.90
2019-01-17T05:55:19.813Z,5.80
2019-01-17T05:57:43.731Z,5.80
2019-01-17T06:00:17.472Z,5.80
2019-01-17T06:02:45.990Z,5.70
2019-01-17T06:05:15.594Z,5.70
2019-01-17T06:07:44.106Z,5.70
2019-01-17T06:10:13.270Z,5.70
2019-01-17T06:12:41.828Z,5.60
2019-01-17T06:15:13.142Z,5.60
2019-01-17T06:17:41.586Z,5.60
2019-01-17T06:20:15.385Z,5.60
2019-01-17T06:22:43.968Z,5.50
2019-01-17T06:25:12.863Z,5.60
2019-01-17T06:27:41.656Z,5.60
2019-01-17T06:30:14.903Z,5.50
2019-01-17T06:32:43.357Z,5.50
2019-01-17T06:35:12.473Z,5.50
2019-01-17T06:37:41.311Z,5.50
2019-01-17T06:40:25.006Z,5.50
2019-01-17T06:42:53.528Z,5.50
2019-01-17T06:45:21.997Z,5.50
2019-01-17T06:47:50.610Z,5.50
2019-01-17T06:50:19.150Z,5.50
2019-01-17T06:52:47.890Z,5.50
2019-01-17T06:55:16.598Z,5.50
2019-01-17T06:57:45.122Z,5.50
2019-01-17T07:00:19.546Z,5.50
2019-01-17T07:02:48.342Z,5.50
2019-01-17T07:05:17.090Z,5.50
2019-01-17T07:07:45.543Z,5.40
2019-01-17T07:10:16.255Z,5.50
2019-01-17T07:12:46.078Z,5.50
2019-01-17T07:15:14.970Z,5.50
2019-01-17T07:17:43.415Z,5.50
2019-01-17T07:20:16.107Z,5.50
2019-01-17T07:22:44.892Z,5.50
2019-01-17T07:25:13.783Z,5.50
2019-01-17T07:27:42.373Z,5.50
2019-01-17T07:30:22.436Z,5.50
2019-01-17T07:32:51.024Z,5.50
2019-01-17T07:35:19.738Z,5.60
2019-01-17T07:37:48.322Z,5.60
2019-01-17T07:40:17.134Z,5.60
2019-01-17T07:42:45.728Z,5.60
2019-01-17T07:45:20.250Z,5.60
2019-01-17T07:47:48.766Z,5.70
2019-01-17T07:50:17.403Z,5.70
2019-01-17T07:52:45.853Z,5.70
2019-01-17T07:55:14.390Z,5.70
2019-01-17T07:57:43.027Z,5.80
2019-01-17T08:00:14.606Z,5.90
2019-01-17T08:02:43.119Z,6.00
2019-01-17T08:05:12.020Z,5.90
2019-01-17T08:07:40.698Z,5.90
2019-01-17T08:10:12.318Z,5.90
2019-01-17T08:12:40.830Z,5.80
2019-01-17T08:15:11.238Z,5.80
2019-01-17T08:17:39.757Z,5.80
2019-01-17T08:20:11.638Z,5.80
2019-01-17T08:22:40.150Z,5.80
2019-01-17T08:25:10.439Z,5.80
2019-01-17T08:27:38.974Z,5.80
2019-01-17T08:30:10.863Z,5.80
2019-01-17T08:32:39.408Z,5.80
2019-01-17T08:35:08.410Z,5.80
2019-01-17T08:37:36.863Z,5.90
2019-01-17T08:40:11.126Z,5.90
2019-01-17T08:42:39.565Z,5.90
2019-01-17T08:45:09.750Z,5.90
2019-01-17T08:47:38.270Z,5.90
2019-01-17T08:50:12.770Z,5.90
2019-01-17T08:52:41.382Z,5.90
2019-01-17T08:55:10.357Z,5.90
2019-01-17T08:57:38.822Z,5.90
2019-01-17T09:00:13.766Z,6.00
2019-01-17T09:02:42.239Z,6.00
2019-01-17T09:05:11.126Z,6.00
2019-01-17T09:07:39.733Z,6.00
2019-01-17T09:10:11.587Z,6.00
2019-01-17T09:12:40.127Z,6.00
2019-01-17T09:15:14.335Z,6.00
2019-01-17T09:17:42.802Z,6.00
2019-01-17T09:20:13.582Z,6.00
2019-01-17T09:22:42.307Z,6.00
2019-01-17T09:25:13.086Z,6.00
2019-01-17T09:27:41.631Z,6.00
2019-01-17T09:30:18.758Z,6.10
2019-01-17T09:32:48.467Z,6.10
2019-01-17T09:35:18.256Z,6.10
2019-01-17T09:37:46.963Z,6.10
2019-01-17T09:40:20.042Z,6.10
2019-01-17T09:42:48.578Z,6.10
2019-01-17T09:45:17.266Z,6.10
2019-01-17T09:47:46.344Z,6.10
2019-01-17T09:50:20.329Z,6.20
2019-01-17T09:52:48.938Z,6.10
2019-01-17T09:55:17.799Z,6.20
2019-01-17T09:57:46.435Z,6.20
2019-01-17T10:00:23.483Z,6.20
2019-01-17T10:02:51.955Z,6.20
2019-01-17T10:05:20.406Z,6.20
2019-01-17T10:07:48.942Z,6.20
2019-01-17T10:10:19.730Z,6.20
2019-01-17T10:12:48.337Z,6.20
2019-01-17T10:15:38.153Z,6.30
2019-01-17T10:18:27.658Z,6.30
2019-01-17T10:21:11.245Z,6.40
2019-01-17T10:23:59.711Z,6.40
2019-01-17T10:26:36.882Z,6.40
2019-01-17T10:29:29.710Z,6.40
2019-01-17T10:32:18.022Z,6.40
2019-01-17T10:35:16.814Z,6.40
2019-01-17T10:37:54.002Z,6.40
2019-01-17T10:40:52.940Z,6.40
2019-01-17T10:43:57.828Z,6.30
2019-01-17T10:46:49.999Z,6.30
2019-01-17T10:49:40.012Z,6.30
2019-01-17T10:52:26.828Z,6.30
2019-01-17T10:55:27.079Z,6.20
2019-01-17T10:58:10.771Z,6.20
2019-01-17T11:01:03.054Z,6.20
2019-01-17T11:04:08.039Z,6.20
2019-01-17T11:06:42.510Z,6.20
2019-01-17T11:09:47.413Z,6.20
2019-01-17T11:12:30.770Z,6.20
2019-01-17T11:15:19.943Z,6.20
2019-01-17T11:18:09.374Z,6.30
2019-01-17T11:20:49.715Z,6.40
2019-01-17T11:23:21.574Z,6.40
2019-01-17T11:26:14.118Z,6.50
2019-01-17T11:28:54.818Z,6.60
2019-01-17T11:31:29.092Z,6.80
2019-01-17T11:34:22.122Z,7.10
2019-01-17T11:37:21.018Z,7.40
2019-01-17T11:40:15.005Z,7.30
2019-01-17T11:43:21.346Z,7.20
2019-01-17T11:46:23.055Z,7.10
2019-01-17T11:49:00.390Z,7.00
2019-01-17T11:51:34.454Z,7.00
2019-01-17T11:54:14.984Z,7.10
2019-01-17T11:56:52.498Z,7.10
2019-01-17T11:59:29.807Z,7.00
2019-01-17T12:02:08.625Z,6.90
2019-01-17T12:04:36.164Z,6.80
2019-01-17T12:07:10.506Z,7.10
2019-01-17T12:09:38.960Z,8.00
2019-01-17T12:12:07.719Z,8.90
2019-01-17T12:14:36.189Z,9.50
2019-01-17T12:17:05.056Z,9.70
2019-01-17T12:19:33.523Z,9.80
2019-01-17T12:22:01.977Z,9.90
2019-01-17T12:24:30.526Z,9.60
2019-01-17T12:26:58.973Z,9.00
2019-01-17T12:29:27.751Z,8.70
2019-01-17T12:31:56.559Z,8.30
2019-01-17T12:34:25.444Z,7.90
2019-01-17T12:36:53.978Z,7.60
2019-01-17T12:39:22.699Z,7.40
2019-01-17T12:41:51.167Z,7.30
2019-01-17T12:44:20.589Z,7.20
2019-01-17T12:46:49.233Z,7.20
2019-01-17T12:49:17.685Z,7.30
2019-01-17T12:51:46.131Z,7.60
2019-01-17T12:54:14.602Z,8.10
2019-01-17T12:56:43.702Z,8.00
2019-01-17T12:59:12.239Z,7.80
2019-01-17T13:01:40.773Z,8.10
2019-01-17T13:04:09.383Z,8.40
2019-01-17T13:06:37.824Z,8.70
2019-01-17T13:09:07.006Z,8.80
2019-01-17T13:11:35.474Z,8.60
2019-01-17T13:14:04.054Z,8.80
2019-01-17T13:16:32.891Z,8.80
2019-01-17T13:19:01.334Z,8.40
2019-01-17T13:21:29.882Z,8.20
2019-01-17T13:23:58.362Z,7.90
2019-01-17T13:26:26.971Z,7.70
2019-01-17T13:28:55.412Z,7.60
2019-01-17T13:31:24.182Z,7.70
2019-01-17T13:33:52.657Z,7.90
2019-01-17T13:36:21.175Z,7.80
2019-01-17T13:38:49.934Z,7.80
2019-01-17T13:41:18.382Z,7.90
2019-01-17T13:43:46.855Z,7.80
2019-01-17T13:46:15.306Z,8.00
2019-01-17T13:48:43.775Z,8.30
2019-01-17T13:51:12.745Z,8.60
2019-01-17T13:53:41.281Z,8.60
2019-01-17T13:56:09.726Z,8.70
2019-01-17T13:58:38.522Z,8.80
2019-01-17T14:01:07.599Z,8.70
2019-01-17T14:03:36.047Z,8.50
2019-01-17T14:06:04.966Z,8.30
2019-01-17T14:08:33.754Z,8.30
2019-01-17T14:11:02.222Z,8.30
2019-01-17T14:13:30.662Z,8.10
2019-01-17T14:15:59.134Z,7.90
2019-01-17T14:18:27.951Z,7.80
2019-01-17T14:20:56.613Z,7.60
2019-01-17T14:23:25.136Z,7.30
2019-01-17T14:25:53.947Z,7.10
2019-01-17T14:28:22.493Z,6.90
2019-01-17T14:30:51.274Z,6.80
2019-01-17T14:33:21.091Z,6.60
2019-01-17T14:35:49.767Z,6.50
2019-01-17T14:38:18.306Z,6.40
2019-01-17T14:40:46.754Z,6.40
2019-01-17T14:43:15.223Z,6.20
2019-01-17T14:45:43.926Z,6.00
2019-01-17T14:48:12.475Z,5.70
2019-01-17T14:50:40.941Z,5.50
2019-01-17T14:53:09.410Z,5.40
2019-01-17T14:55:37.854Z,5.20
2019-01-17T14:58:06.433Z,5.10
2019-01-17T15:00:35.257Z,5.00
2019-01-17T15:03:03.826Z,4.90
2019-01-17T15:05:32.367Z,4.80
2019-01-17T15:08:00.817Z,4.80
2019-01-17T15:10:35.254Z,4.70
2019-01-17T15:13:04.071Z,4.70
2019-01-17T15:15:32.890Z,4.70
2019-01-17T15:18:01.407Z,4.80
2019-01-17T15:20:29.858Z,4.70
2019-01-17T15:22:58.330Z,4.70
2019-01-17T15:25:26.916Z,4.70
2019-01-17T15:27:55.450Z,4.70
2019-01-17T15:30:25.845Z,4.70
2019-01-17T15:32:54.723Z,4.70
2019-01-17T15:35:23.232Z,4.70
2019-01-17T15:37:51.986Z,4.70
2019-01-17T15:40:25.691Z,4.70
2019-01-17T15:42:54.134Z,4.70
2019-01-17T15:45:22.741Z,4.70
2019-01-17T15:47:51.259Z,4.70
2019-01-17T15:50:20.475Z,4.70
2019-01-17T15:52:49.066Z,4.80
2019-01-17T15:55:17.915Z,4.70
2019-01-17T15:57:46.562Z,4.80
2019-01-17T16:00:26.834Z,4.80
2019-01-17T16:02:55.343Z,4.90
2019-01-17T16:05:24.233Z,4.90
2019-01-17T16:07:52.741Z,5.00
2019-01-17T16:10:21.187Z,5.10
2019-01-17T16:12:49.790Z,5.10
2019-01-17T16:15:21.314Z,5.10
2019-01-17T16:17:49.784Z,5.20
2019-01-17T16:20:18.367Z,5.20
2019-01-17T16:22:46.962Z,5.20
2019-01-17T16:25:15.835Z,5.30
2019-01-17T16:27:44.430Z,5.30
2019-01-17T16:30:18.436Z,5.30
2019-01-17T16:32:46.948Z,5.30
2019-01-17T16:35:15.486Z,5.30
2019-01-17T16:37:44.002Z,5.30
2019-01-17T16:40:13.182Z,5.20
2019-01-17T16:42:41.718Z,5.20
2019-01-17T16:45:13.731Z,5.20
2019-01-17T16:47:42.270Z,5.20
2019-01-17T16:50:15.979Z,5.20
2019-01-17T16:52:44.695Z,5.10
2019-01-17T16:55:14.077Z,5.20
2019-01-17T16:57:48.568Z,5.10
2019-01-17T17:00:18.474Z,5.10
2019-01-17T17:02:46.994Z,5.10
2019-01-17T17:05:15.674Z,4.70
2019-01-17T17:07:44.192Z,4.40
2019-01-17T17:10:16.010Z,4.00
2019-01-17T17:12:44.474Z,3.70
2019-01-17T17:15:13.726Z,3.60
2019-01-17T17:17:42.199Z,3.40
2019-01-17T17:20:16.241Z,3.30
2019-01-17T17:22:44.834Z,3.20
2019-01-17T17:25:13.518Z,3.20
2019-01-17T17:27:41.987Z,3.20
2019-01-17T17:30:22.074Z,3.20
2019-01-17T17:32:50.620Z,3.20
2019-01-17T17:35:19.205Z,3.20
2019-01-17T17:37:48.071Z,3.20
2019-01-17T17:40:22.429Z,3.20
2019-01-17T17:42:51.244Z,3.20
2019-01-17T17:45:20.035Z,3.20
2019-01-17T17:47:48.750Z,3.20
2019-01-17T17:50:19.534Z,3.20
2019-01-17T17:52:48.245Z,3.20
2019-01-17T17:55:17.829Z,3.10
2019-01-17T17:57:46.692Z,3.20
2019-01-17T18:00:25.269Z,3.20
2019-01-17T18:02:54.394Z,3.20
2019-01-17T18:05:23.251Z,3.20
2019-01-17T18:07:51.790Z,3.20
2019-01-17T18:10:20.706Z,3.20
2019-01-17T18:12:49.518Z,3.20
2019-01-17T18:15:19.323Z,3.20
2019-01-17T18:17:48.391Z,3.20
2019-01-17T18:20:17.683Z,3.30
2019-01-17T18:22:46.358Z,3.20
2019-01-17T18:25:15.048Z,3.20
2019-01-17T18:27:43.561Z,3.20
2019-01-17T18:30:23.442Z,3.20
2019-01-17T18:32:52.026Z,3.20
2019-01-17T18:35:20.564Z,3.20
2019-01-17T18:37:49.142Z,3.20
2019-01-17T18:40:21.566Z,3.20
2019-01-17T18:42:50.086Z,3.20
2019-01-17T18:45:21.699Z,3.20
2019-01-17T18:47:50.288Z,3.30
2019-01-17T18:50:23.774Z,3.30
2019-01-17T18:52:52.226Z,3.30
2019-01-17T18:55:20.745Z,3.40
2019-01-17T18:57:49.278Z,3.40
2019-01-17T19:00:22.189Z,3.30
2019-01-17T19:02:51.328Z,3.30
2019-01-17T19:05:20.472Z,3.30
2019-01-17T19:07:48.988Z,3.20
2019-01-17T19:10:18.970Z,3.20
2019-01-17T19:12:47.682Z,3.10
2019-01-17T19:15:18.662Z,3.00
2019-01-17T19:17:47.206Z,2.80
2019-01-17T19:20:17.595Z,2.70
2019-01-17T19:22:46.201Z,2.70
2019-01-17T19:25:14.781Z,2.70
2019-01-17T19:27:43.399Z,2.70
2019-01-17T19:30:14.942Z,2.70
2019-01-17T19:32:43.459Z,2.70
2019-01-17T19:35:12.166Z,2.60
2019-01-17T19:37:40.606Z,2.60
2019-01-17T19:40:17.570Z,2.50
2019-01-17T19:42:46.018Z,2.50
2019-01-17T19:45:15.922Z,2.40
2019-01-17T19:47:44.843Z,2.40
2019-01-17T19:50:28.151Z,2.40
2019-01-17T19:52:57.018Z,2.40
2019-01-17T19:55:25.638Z,2.40
2019-01-17T19:57:54.150Z,2.40
2019-01-17T20:00:22.773Z,2.40
2019-01-17T20:02:51.454Z,2.30
2019-01-17T20:05:28.453Z,2.30
2019-01-17T20:07:57.133Z,2.30
2019-01-17T20:10:28.184Z,2.30
2019-01-17T20:12:56.867Z,2.30
2019-01-17T20:15:25.546Z,2.30
2019-01-17T20:17:54.305Z,2.20
2019-01-17T20:20:22.923Z,2.20
2019-01-17T20:22:51.463Z,2.20
2019-01-17T20:25:20.046Z,2.20
2019-01-17T20:27:48.587Z,2.20
2019-01-17T20:30:28.128Z,2.20
2019-01-17T20:32:58.698Z,2.20
2019-01-17T20:35:27.285Z,2.20
2019-01-17T20:37:55.971Z,2.20
2019-01-17T20:40:25.051Z,2.20
2019-01-17T20:42:53.685Z,2.20
2019-01-17T20:45:22.562Z,2.20
2019-01-17T20:47:51.374Z,2.20
2019-01-17T20:50:30.619Z,2.20
2019-01-17T20:52:59.162Z,2.20
2019-01-17T20:55:27.667Z,2.20
2019-01-17T20:57:56.360Z,2.20
2019-01-17T21:00:37.439Z,2.20
2019-01-17T21:03:08.151Z,2.20
2019-01-17T21:05:36.667Z,2.20
2019-01-17T21:08:05.307Z,2.20
2019-01-17T21:10:33.819Z,2.20
2019-01-17T21:13:02.267Z,2.20
2019-01-17T21:15:30.743Z,2.20
2019-01-17T21:17:59.186Z,2.20
2019-01-17T21:20:27.915Z,2.10
2019-01-17T21:22:56.366Z,2.10
2019-01-17T21:25:24.834Z,2.10
2019-01-17T21:27:53.280Z,2.10
2019-01-17T21:30:24.046Z,2.10
2019-01-17T21:32:52.492Z,2.00
2019-01-17T21:35:21.025Z,2.10
2019-01-17T21:37:49.471Z,2.00
2019-01-17T21:40:22.535Z,2.00
2019-01-17T21:42:51.242Z,2.00
2019-01-17T21:45:19.850Z,2.00
2019-01-17T21:47:48.442Z,2.00
2019-01-17T21:50:25.465Z,2.00
2019-01-17T21:52:54.117Z,2.00
2019-01-17T21:55:22.658Z,2.00
2019-01-17T21:57:51.371Z,2.00
2019-01-17T22:00:22.448Z,2.00
2019-01-17T22:02:51.294Z,2.00
2019-01-17T22:05:19.762Z,2.00
2019-01-17T22:07:48.350Z,2.10
2019-01-17T22:10:18.157Z,2.10
2019-01-17T22:12:46.747Z,2.10
2019-01-17T22:15:21.046Z,2.20
2019-01-17T22:17:49.564Z,2.20
2019-01-17T22:20:18.774Z,2.20
2019-01-17T22:22:47.370Z,2.10
2019-01-17T22:25:17.682Z,2.10
2019-01-17T22:27:47.322Z,2.10
2019-01-17T22:30:18.410Z,2.10
2019-01-17T22:32:46.855Z,2.00
2019-01-17T22:35:15.330Z,2.00
2019-01-17T22:37:43.776Z,1.90
2019-01-17T22:40:14.643Z,1.90
2019-01-17T22:42:43.084Z,1.90
2019-01-17T22:45:14.094Z,1.90
2019-01-17T22:47:43.284Z,1.80
2019-01-17T22:50:14.806Z,1.80
2019-01-17T22:52:43.250Z,1.80
2019-01-17T22:55:11.854Z,1.80
2019-01-17T22:57:40.294Z,1.80
2019-01-17T23:00:52.319Z,1.80
2019-01-17T23:03:23.506Z,1.90
2019-01-17T23:05:52.066Z,1.90
2019-01-17T23:08:20.523Z,1.90
2019-01-17T23:10:49.058Z,1.80
2019-01-17T23:13:17.650Z,1.80
2019-01-17T23:15:46.192Z,1.80
2019-01-17T23:18:14.702Z,1.80
2019-01-17T23:20:43.245Z,1.80
2019-01-17T23:23:11.758Z,1.80
2019-01-17T23:25:40.295Z,1.80
2019-01-17T23:28:09.070Z,1.80
2019-01-17T23:30:38.146Z,1.80
2019-01-17T23:33:06.935Z,1.80
2019-01-17T23:35:35.400Z,1.80
2019-01-17T23:38:06.875Z,1.80
2019-01-17T23:40:35.523Z,1.80
2019-01-17T23:43:04.065Z,1.80
2019-01-17T23:45:32.530Z,1.80
2019-01-17T23:48:00.978Z,1.80
2019-01-17T23:50:29.443Z,1.90
2019-01-17T23:52:57.886Z,1.90
2019-01-17T23:55:26.359Z,1.90
2019-01-17T23:57:54.814Z,1.90
